Time;durP1;ratioP1;P1;durP2;ratioP2;P2;SDS_P1;SDS_P2;PMS_P1;PMS_P2;Temp;Humidity;BMP_temperature;BMP_pressure;BME280_temperature;BME280_humidity;BME280_pressure;Samples;Min_cycle;Max_cycle;Signal;HPM_P1;HPM_P2
2023/05/20 00:01:11;;;;;;;8.93;6.97;;;;;;;;;;5149976;27;20023;-60
2023/05/20 00:03:38;;;;;;;8.85;6.50;;;;;;;;;;5150301;27;20027;-60
2023/05/20 00:06:04;;;;;;;11.63;7.43;;;;;;;;;;5152879;27;20114;-60
2023/05/20 00:08:31;;;;;;;11.98;7.68;;;;;;;;;;5155430;27;20019;-60
2023/05/20 00:10:58;;;;;;;11.02;7.25;;;;;;;;;;5155232;27;20015;-60
2023/05/20 00:13:25;;;;;;;10.48;6.93;;;;;;;;;;5155040;27;20071;-60
2023/05/20 00:15:52;;;;;;;13.90;7.43;;;;;;;;;;5154823;27;20499;-60
2023/05/20 00:18:19;;;;;;;10.02;7.13;;;;;;;;;;5152127;27;20469;-60
2023/05/20 00:20:48;;;;;;;14.93;8.55;;;;;;;;;;5149432;27;20383;-59
2023/05/20 00:23:15;;;;;;;21.33;7.97;;;;;;;;;;5149561;27;20495;-60
2023/05/20 00:25:42;;;;;;;12.13;8.82;;;;;;;;;;5149746;27;20101;-60
2023/05/20 00:28:08;;;;;;;14.38;8.75;;;;;;;;;;5151959;27;20014;-60
2023/05/20 00:30:35;;;;;;;14.15;8.07;;;;;;;;;;5154873;27;20034;-59
2023/05/20 00:33:02;;;;;;;11.52;7.63;;;;;;;;;;5154234;27;20073;-59
2023/05/20 00:35:28;;;;;;;11.02;7.15;;;;;;;;;;5154678;27;20079;-59
2023/05/20 00:37:55;;;;;;;10.90;7.82;;;;;;;;;;5154131;27;20059;-59
2023/05/20 00:40:23;;;;;;;15.73;9.10;;;;;;;;;;5152357;27;20030;-60
2023/05/20 00:42:50;;;;;;;9.85;6.88;;;;;;;;;;5149642;27;20415;-59
2023/05/20 00:45:17;;;;;;;10.55;7.13;;;;;;;;;;5149219;27;20023;-59
2023/05/20 00:47:44;;;;;;;24.75;8.93;;;;;;;;;;5149364;27;20027;-60
2023/05/20 00:50:11;;;;;;;21.65;8.85;;;;;;;;;;5150722;27;20011;-60
2023/05/20 00:52:38;;;;;;;25.27;8.88;;;;;;;;;;5154452;27;20026;-59
2023/05/20 00:55:05;;;;;;;12.20;9.10;;;;;;;;;;5154356;27;20031;-59
2023/05/20 00:57:32;;;;;;;11.30;7.13;;;;;;;;;;5154272;27;20014;-59
2023/05/20 00:59:58;;;;;;;13.68;7.38;;;;;;;;;;5154504;27;20023;-59
2023/05/20 01:02:25;;;;;;;14.85;8.18;;;;;;;;;;5152620;27;20381;-61
2023/05/20 01:04:54;;;;;;;11.07;7.95;;;;;;;;;;5149218;27;20050;-59
2023/05/20 01:07:20;;;;;;;11.32;7.82;;;;;;;;;;5148789;27;20497;-60
2023/05/20 01:09:47;;;;;;;15.02;7.88;;;;;;;;;;5149320;27;20481;-59
2023/05/20 01:12:17;;;;;;;16.17;7.38;;;;;;;;;;5149710;27;20067;-59
2023/05/20 01:14:48;;;;;;;16.38;9.20;;;;;;;;;;5154143;27;20023;-62
2023/05/20 01:17:16;;;;;;;10.00;6.88;;;;;;;;;;5154351;27;20023;-59
2023/05/20 01:19:44;;;;;;;14.25;8.52;;;;;;;;;;5154204;27;20030;-60
2023/05/20 01:22:11;;;;;;;16.02;9.27;;;;;;;;;;5154129;27;20079;-59
2023/05/20 01:24:42;;;;;;;8.50;6.53;;;;;;;;;;5152843;27;20018;-59
2023/05/20 01:27:12;;;;;;;28.02;8.13;;;;;;;;;;5149004;27;20026;-60
2023/05/20 01:29:39;;;;;;;25.13;7.90;;;;;;;;;;5148800;27;20015;-60
2023/05/20 01:32:07;;;;;;;11.43;5.85;;;;;;;;;;5148925;27;20026;-59
2023/05/20 01:34:35;;;;;;;11.95;8.00;;;;;;;;;;5149461;27;20065;-59
2023/05/20 01:37:04;;;;;;;9.60;5.55;;;;;;;;;;5153975;27;20031;-59
2023/05/20 01:39:33;;;;;;;6.88;5.18;;;;;;;;;;5153658;27;20030;-60
2023/05/20 01:42:01;;;;;;;8.63;6.15;;;;;;;;;;5153806;27;20061;-60
2023/05/20 01:44:28;;;;;;;14.82;7.85;;;;;;;;;;5153842;27;20023;-60
2023/05/20 01:46:54;;;;;;;16.13;8.52;;;;;;;;;;5155695;27;20046;-60
2023/05/20 01:49:21;;;;;;;19.48;8.55;;;;;;;;;;5152944;27;20015;-60
2023/05/20 01:51:48;;;;;;;8.70;6.70;;;;;;;;;;5153015;27;20037;-60
2023/05/20 01:54:15;;;;;;;12.13;8.67;;;;;;;;;;5152754;27;20035;-60
2023/05/20 01:56:41;;;;;;;17.65;7.90;;;;;;;;;;5152936;27;20030;-60
2023/05/20 01:59:08;;;;;;;7.63;6.00;;;;;;;;;;5157854;27;20025;-60
2023/05/20 02:01:35;;;;;;;16.25;8.98;;;;;;;;;;5157916;27;20027;-60
2023/05/20 02:04:02;;;;;;;12.13;6.80;;;;;;;;;;5157598;27;20110;-60
2023/05/20 02:06:28;;;;;;;24.57;7.73;;;;;;;;;;5157593;27;20477;-60
2023/05/20 02:08:55;;;;;;;14.03;7.80;;;;;;;;;;5157751;27;20025;-60
2023/05/20 02:11:22;;;;;;;9.27;6.70;;;;;;;;;;5152562;27;20051;-60
2023/05/20 02:13:50;;;;;;;13.27;7.93;;;;;;;;;;5152446;27;20038;-59
2023/05/20 02:16:17;;;;;;;16.83;9.57;;;;;;;;;;5152308;27;20427;-60
2023/05/20 02:18:43;;;;;;;17.20;9.30;;;;;;;;;;5152231;27;20030;-60
2023/05/20 02:21:10;;;;;;;16.43;8.10;;;;;;;;;;5156908;27;20063;-60
2023/05/20 02:23:37;;;;;;;10.43;7.37;;;;;;;;;;5156921;27;20022;-60
2023/05/20 02:26:04;;;;;;;15.87;7.63;;;;;;;;;;5157383;27;20022;-59
2023/05/20 02:28:31;;;;;;;10.47;8.23;;;;;;;;;;5157333;27;20472;-60
2023/05/20 02:30:57;;;;;;;11.13;7.43;;;;;;;;;;5157298;27;20019;-59
2023/05/20 02:33:27;;;;;;;16.50;8.20;;;;;;;;;;5152451;27;20508;-59
2023/05/20 02:35:54;;;;;;;10.97;7.10;;;;;;;;;;5152028;27;20035;-59
2023/05/20 02:38:21;;;;;;;10.70;6.87;;;;;;;;;;5152166;27;20027;-59
2023/05/20 02:40:48;;;;;;;12.47;8.13;;;;;;;;;;5151608;27;20050;-60
2023/05/20 02:43:14;;;;;;;8.27;6.73;;;;;;;;;;5155799;27;20023;-59
2023/05/20 02:45:41;;;;;;;10.73;7.20;;;;;;;;;;5157033;27;20029;-59
2023/05/20 02:48:08;;;;;;;16.23;8.27;;;;;;;;;;5157117;27;20430;-59
2023/05/20 02:50:39;;;;;;;13.63;8.67;;;;;;;;;;5156804;27;20544;-60
2023/05/20 02:53:06;;;;;;;11.87;7.40;;;;;;;;;;5156838;27;20023;-59
2023/05/20 02:55:42;;;;;;;18.17;9.33;;;;;;;;;;5152673;27;20110;-60
2023/05/20 02:58:09;;;;;;;14.20;9.30;;;;;;;;;;5151066;27;20030;-60
2023/05/20 03:00:39;;;;;;;9.50;7.43;;;;;;;;;;5151668;27;20030;-59
2023/05/20 03:03:06;;;;;;;14.70;8.63;;;;;;;;;;5151313;27;20031;-60
2023/05/20 03:05:36;;;;;;;14.77;8.37;;;;;;;;;;5155437;27;20029;-59
2023/05/20 03:08:04;;;;;;;9.47;6.30;;;;;;;;;;5156403;27;20023;-59
2023/05/20 03:10:31;;;;;;;16.93;8.93;;;;;;;;;;5156471;27;20074;-59
2023/05/20 03:12:58;;;;;;;10.57;7.87;;;;;;;;;;5156354;27;20026;-59
2023/05/20 03:15:25;;;;;;;28.87;7.60;;;;;;;;;;5156416;27;20031;-59
2023/05/20 03:17:52;;;;;;;17.33;8.30;;;;;;;;;;5152379;27;20094;-59
2023/05/20 03:20:19;;;;;;;13.63;8.17;;;;;;;;;;5151312;27;20015;-59
2023/05/20 03:22:46;;;;;;;15.60;8.40;;;;;;;;;;5151151;27;20035;-60
2023/05/20 03:25:12;;;;;;;13.77;7.77;;;;;;;;;;5151048;27;20203;-60
2023/05/20 03:27:40;;;;;;;14.43;7.97;;;;;;;;;;5154204;27;20023;-60
2023/05/20 03:30:08;;;;;;;18.57;7.43;;;;;;;;;;5155794;27;20369;-59
2023/05/20 03:32:35;;;;;;;15.63;9.20;;;;;;;;;;5156031;27;20025;-59
2023/05/20 03:35:02;;;;;;;10.83;7.20;;;;;;;;;;5156049;27;20030;-60
2023/05/20 03:37:29;;;;;;;11.60;7.90;;;;;;;;;;5155854;27;20046;-60
2023/05/20 03:39:56;;;;;;;11.77;7.60;;;;;;;;;;5152487;27;20027;-60
2023/05/20 03:42:22;;;;;;;13.47;9.40;;;;;;;;;;5150835;27;20071;-60
2023/05/20 03:44:49;;;;;;;8.60;6.67;;;;;;;;;;5150739;27;20027;-59
2023/05/20 03:47:16;;;;;;;15.53;11.43;;;;;;;;;;5150383;27;20033;-60
2023/05/20 03:49:43;;;;;;;12.80;8.57;;;;;;;;;;5153178;27;20105;-59
2023/05/20 03:52:09;;;;;;;16.10;9.10;;;;;;;;;;5155722;27;20030;-59
2023/05/20 03:54:36;;;;;;;14.43;8.17;;;;;;;;;;5155619;27;20091;-59
2023/05/20 03:57:03;;;;;;;19.40;7.80;;;;;;;;;;5155579;27;20110;-60
2023/05/20 03:59:30;;;;;;;15.03;9.40;;;;;;;;;;5155269;27;20022;-60
2023/05/20 04:01:56;;;;;;;20.93;8.67;;;;;;;;;;5152758;27;20346;-59
2023/05/20 04:04:23;;;;;;;10.83;8.33;;;;;;;;;;5150503;27;20533;-60
2023/05/20 04:06:50;;;;;;;20.40;9.80;;;;;;;;;;5150205;27;20421;-59
2023/05/20 04:09:17;;;;;;;19.03;11.10;;;;;;;;;;5149466;27;20477;-59
2023/05/20 04:11:44;;;;;;;14.20;10.53;;;;;;;;;;5152032;27;20019;-60
2023/05/20 04:14:11;;;;;;;13.97;9.63;;;;;;;;;;5155240;27;20037;-59
2023/05/20 04:16:38;;;;;;;18.60;11.17;;;;;;;;;;5155163;27;20042;-60
2023/05/20 04:19:06;;;;;;;14.57;8.87;;;;;;;;;;5155154;27;20072;-60
2023/05/20 04:21:32;;;;;;;19.47;11.03;;;;;;;;;;5154951;27;20033;-59
2023/05/20 04:23:59;;;;;;;12.03;9.63;;;;;;;;;;5152827;27;20045;-59
2023/05/20 04:26:26;;;;;;;14.30;10.10;;;;;;;;;;5150137;27;20026;-59
2023/05/20 04:28:52;;;;;;;11.93;9.03;;;;;;;;;;5149900;27;20565;-59
2023/05/20 04:31:20;;;;;;;13.93;10.03;;;;;;;;;;5149782;27;20018;-59
2023/05/20 04:33:46;;;;;;;16.27;10.53;;;;;;;;;;5150545;27;20101;-59
2023/05/20 04:36:16;;;;;;;12.87;9.20;;;;;;;;;;5154798;27;20023;-60
2023/05/20 04:38:43;;;;;;;12.43;10.10;;;;;;;;;;5154879;27;20037;-59
2023/05/20 04:41:10;;;;;;;19.97;11.10;;;;;;;;;;5154334;27;20023;-59
2023/05/20 04:43:38;;;;;;;21.07;10.70;;;;;;;;;;5154920;27;20030;-59
2023/05/20 04:46:05;;;;;;;14.17;9.27;;;;;;;;;;5153438;27;20026;-59
2023/05/20 04:48:33;;;;;;;35.03;9.33;;;;;;;;;;5149552;27;20027;-59
2023/05/20 04:51:00;;;;;;;13.77;8.77;;;;;;;;;;5149368;27;20014;-60
2023/05/20 04:53:26;;;;;;;15.77;8.90;;;;;;;;;;5149232;27;20023;-59
2023/05/20 04:55:56;;;;;;;19.47;11.13;;;;;;;;;;5149894;27;20380;-59
2023/05/20 04:58:23;;;;;;;19.43;9.60;;;;;;;;;;5154018;27;20033;-59
2023/05/20 05:00:51;;;;;;;12.23;9.57;;;;;;;;;;5154596;27;20500;-59
2023/05/20 05:03:18;;;;;;;30.13;10.83;;;;;;;;;;5154511;27;20098;-59
2023/05/20 05:05:45;;;;;;;18.13;10.00;;;;;;;;;;5154234;27;20476;-60
2023/05/20 05:08:11;;;;;;;12.63;7.10;;;;;;;;;;5153282;27;20023;-59
2023/05/20 05:10:38;;;;;;;18.00;11.30;;;;;;;;;;5149136;27;20418;-59
2023/05/20 05:13:05;;;;;;;19.47;11.87;;;;;;;;;;5149197;27;20023;-59
2023/05/20 05:15:31;;;;;;;13.10;9.43;;;;;;;;;;5148622;27;20034;-59
2023/05/20 05:17:58;;;;;;;15.60;9.97;;;;;;;;;;5149228;27;20477;-59
2023/05/20 05:20:25;;;;;;;12.60;9.33;;;;;;;;;;5153834;27;20484;-59
2023/05/20 05:22:52;;;;;;;16.60;9.47;;;;;;;;;;5154260;27;20030;-59
2023/05/20 05:25:19;;;;;;;21.30;12.13;;;;;;;;;;5153992;27;20030;-60
2023/05/20 05:27:48;;;;;;;15.13;10.73;;;;;;;;;;5154039;27;20033;-59
2023/05/20 05:30:14;;;;;;;15.83;10.33;;;;;;;;;;5153906;27;20030;-59
2023/05/20 05:32:41;;;;;;;15.63;9.53;;;;;;;;;;5148536;27;20489;-59
2023/05/20 05:35:08;;;;;;;16.63;9.10;;;;;;;;;;5149040;27;20389;-59
2023/05/20 05:37:35;;;;;;;15.97;10.60;;;;;;;;;;5148662;27;20043;-59
2023/05/20 05:40:02;;;;;;;11.80;7.97;;;;;;;;;;5148950;27;20023;-59
2023/05/20 05:42:29;;;;;;;9.47;7.13;;;;;;;;;;5153190;27;20019;-59
2023/05/20 05:44:56;;;;;;;12.50;8.10;;;;;;;;;;5154009;27;20026;-59
2023/05/20 05:47:22;;;;;;;19.20;10.47;;;;;;;;;;5153987;27;20027;-59
2023/05/20 05:49:50;;;;;;;13.23;8.53;;;;;;;;;;5153824;27;20018;-59
2023/05/20 05:52:17;;;;;;;18.07;12.13;;;;;;;;;;5153691;27;20022;-59
2023/05/20 05:54:44;;;;;;;15.13;10.90;;;;;;;;;;5148877;27;20419;-59
2023/05/20 05:57:10;;;;;;;21.60;11.57;;;;;;;;;;5148793;27;20023;-59
2023/05/20 05:59:37;;;;;;;9.93;8.27;;;;;;;;;;5148497;27;20027;-59
2023/05/20 06:02:04;;;;;;;17.83;10.47;;;;;;;;;;5148560;27;20512;-59
2023/05/20 06:04:31;;;;;;;17.50;11.23;;;;;;;;;;5152687;27;20107;-59
2023/05/20 06:06:58;;;;;;;13.80;9.93;;;;;;;;;;5153587;27;20350;-59
2023/05/20 06:09:25;;;;;;;19.63;12.60;;;;;;;;;;5153533;27;20029;-59
2023/05/20 06:11:51;;;;;;;28.27;13.17;;;;;;;;;;5153668;27;20026;-59
2023/05/20 06:14:18;;;;;;;16.30;10.23;;;;;;;;;;5153637;27;20023;-59
2023/05/20 06:16:45;;;;;;;18.33;12.40;;;;;;;;;;5149010;27;20023;-60
2023/05/20 06:19:12;;;;;;;12.60;10.13;;;;;;;;;;5148504;27;20015;-59
2023/05/20 06:21:38;;;;;;;18.17;12.17;;;;;;;;;;5148633;27;20018;-59
2023/05/20 06:24:05;;;;;;;21.07;11.70;;;;;;;;;;5148907;27;20442;-59
2023/05/20 06:26:32;;;;;;;24.27;10.67;;;;;;;;;;5151359;27;20019;-59
2023/05/20 06:28:59;;;;;;;18.10;11.13;;;;;;;;;;5153477;27;20015;-59
2023/05/20 06:31:26;;;;;;;19.03;12.57;;;;;;;;;;5154076;27;20031;-59
2023/05/20 06:33:52;;;;;;;17.87;12.53;;;;;;;;;;5157103;27;20548;-59
2023/05/20 06:36:19;;;;;;;11.07;8.70;;;;;;;;;;5157296;27;20075;-59
2023/05/20 06:38:46;;;;;;;16.73;11.97;;;;;;;;;;5153631;27;20419;-58
2023/05/20 06:41:13;;;;;;;16.57;11.67;;;;;;;;;;5152131;27;20018;-59
2023/05/20 06:43:40;;;;;;;14.57;11.77;;;;;;;;;;5151823;27;20015;-59
2023/05/20 06:46:06;;;;;;;15.47;11.30;;;;;;;;;;5151916;27;20023;-59
2023/05/20 06:48:33;;;;;;;12.97;8.83;;;;;;;;;;5154615;27;20060;-59
2023/05/20 06:51:00;;;;;;;13.93;10.63;;;;;;;;;;5156700;27;20492;-59
2023/05/20 06:53:27;;;;;;;11.30;9.47;;;;;;;;;;5156941;27;20067;-59
2023/05/20 06:55:57;;;;;;;16.80;11.13;;;;;;;;;;5156660;27;20038;-58
2023/05/20 06:58:23;;;;;;;25.00;12.17;;;;;;;;;;5156490;27;20018;-59
2023/05/20 07:00:50;;;;;;;17.50;11.87;;;;;;;;;;5153563;27;20033;-59
2023/05/20 07:03:17;;;;;;;21.20;10.73;;;;;;;;;;5151484;27;20079;-59
2023/05/20 07:05:44;;;;;;;14.90;10.73;;;;;;;;;;5151552;27;20022;-59
2023/05/20 07:08:11;;;;;;;13.90;9.87;;;;;;;;;;5151296;27;20023;-59
2023/05/20 07:10:38;;;;;;;15.40;11.30;;;;;;;;;;5153696;27;20011;-59
2023/05/20 07:13:04;;;;;;;20.60;12.50;;;;;;;;;;5156518;27;20030;-58
2023/05/20 07:15:31;;;;;;;19.80;11.77;;;;;;;;;;5156367;27;20049;-59
2023/05/20 07:18:00;;;;;;;21.20;13.00;;;;;;;;;;5155897;27;20472;-59
2023/05/20 07:20:27;;;;;;;20.87;10.40;;;;;;;;;;5156438;27;20023;-58
2023/05/20 07:22:54;;;;;;;15.47;10.67;;;;;;;;;;5154050;27;20034;-59
2023/05/20 07:25:20;;;;;;;12.67;9.97;;;;;;;;;;5150901;27;20027;-59
2023/05/20 07:27:47;;;;;;;10.80;9.03;;;;;;;;;;5132547;27;20022;-58
2023/05/20 07:30:14;;;;;;;16.87;10.83;;;;;;;;;;5150960;27;20066;-58
2023/05/20 07:32:41;;;;;;;12.97;10.27;;;;;;;;;;5152583;27;20414;-59
2023/05/20 07:35:08;;;;;;;10.73;8.87;;;;;;;;;;5155447;27;20385;-58
2023/05/20 07:37:34;;;;;;;17.83;11.07;;;;;;;;;;5155958;27;20121;-58
2023/05/20 07:40:01;;;;;;;16.03;11.90;;;;;;;;;;5155985;27;20493;-58
2023/05/20 07:42:28;;;;;;;16.73;10.57;;;;;;;;;;5155657;27;20023;-59
2023/05/20 07:44:55;;;;;;;15.73;11.43;;;;;;;;;;5154284;27;20022;-59
2023/05/20 07:47:22;;;;;;;15.63;10.50;;;;;;;;;;5150569;27;20381;-59
2023/05/20 07:49:48;;;;;;;21.43;10.30;;;;;;;;;;5150735;27;20565;-58
2023/05/20 07:52:15;;;;;;;17.00;11.50;;;;;;;;;;5150456;27;20408;-59
2023/05/20 07:54:42;;;;;;;15.00;10.23;;;;;;;;;;5151284;27;20038;-59
2023/05/20 07:57:09;;;;;;;25.87;10.53;;;;;;;;;;5155633;27;20023;-58
2023/05/20 07:59:35;;;;;;;20.73;10.73;;;;;;;;;;5155416;27;20126;-58
2023/05/20 08:02:02;;;;;;;12.10;8.47;;;;;;;;;;5155595;27;20019;-58
2023/05/20 08:04:29;;;;;;;30.10;10.20;;;;;;;;;;5155512;27;20031;-58
2023/05/20 08:06:56;;;;;;;16.83;11.47;;;;;;;;;;5154250;27;20023;-59
2023/05/20 08:09:22;;;;;;;13.23;9.23;;;;;;;;;;5149921;27;20050;-59
2023/05/20 08:11:49;;;;;;;18.33;10.57;;;;;;;;;;5150194;27;20023;-59
2023/05/20 08:14:16;;;;;;;11.23;9.17;;;;;;;;;;5150171;27;20848;-59
2023/05/20 08:16:43;;;;;;;15.90;10.83;;;;;;;;;;5150187;27;20027;-59
2023/05/20 08:19:10;;;;;;;14.00;10.03;;;;;;;;;;5155308;27;20083;-60
2023/05/20 08:21:37;;;;;;;15.53;9.70;;;;;;;;;;5155230;27;20380;-59
2023/05/20 08:24:04;;;;;;;18.50;10.83;;;;;;;;;;5155083;27;20019;-59
2023/05/20 08:26:31;;;;;;;20.40;11.93;;;;;;;;;;5154710;27;20047;-58
2023/05/20 08:28:57;;;;;;;12.47;9.60;;;;;;;;;;5154577;27;20023;-59
2023/05/20 08:31:24;;;;;;;15.90;12.67;;;;;;;;;;5149805;27;20045;-58
2023/05/20 08:33:51;;;;;;;16.23;11.20;;;;;;;;;;5149565;27;20031;-59
2023/05/20 08:36:18;;;;;;;13.47;9.93;;;;;;;;;;5149956;27;20019;-58
2023/05/20 08:38:45;;;;;;;23.43;9.83;;;;;;;;;;5149695;27;20031;-58
2023/05/20 08:41:12;;;;;;;17.03;11.00;;;;;;;;;;5154544;27;20030;-58
2023/05/20 08:43:38;;;;;;;18.83;10.30;;;;;;;;;;5154354;27;20503;-58
2023/05/20 08:46:05;;;;;;;21.43;12.63;;;;;;;;;;5154756;27;20409;-58
2023/05/20 08:48:33;;;;;;;14.00;10.13;;;;;;;;;;5154829;27;20455;-58
2023/05/20 08:51:02;;;;;;;12.07;9.07;;;;;;;;;;5154289;27;20105;-59
2023/05/20 08:53:31;;;;;;;19.53;11.67;;;;;;;;;;5149341;27;20023;-59
2023/05/20 08:56:04;;;;;;;17.77;11.57;;;;;;;;;;5148950;27;20092;-59
2023/05/20 08:58:34;;;;;;;15.33;10.13;;;;;;;;;;5148959;27;20030;-58
2023/05/20 09:01:01;;;;;;;18.37;12.57;;;;;;;;;;5149411;27;20022;-58
2023/05/20 09:03:29;;;;;;;19.07;11.37;;;;;;;;;;5153957;27;20065;-58
2023/05/20 09:06:03;;;;;;;14.63;11.13;;;;;;;;;;5154369;27;20054;-59
2023/05/20 09:08:31;;;;;;;14.23;10.63;;;;;;;;;;5154225;27;20043;-58
2023/05/20 09:10:57;;;;;;;13.77;10.03;;;;;;;;;;5154397;27;20440;-58
2023/05/20 09:13:24;;;;;;;14.53;10.33;;;;;;;;;;5153882;27;20034;-58
2023/05/20 09:15:51;;;;;;;14.43;10.57;;;;;;;;;;5149250;27;20035;-58
2023/05/20 09:18:18;;;;;;;15.77;11.73;;;;;;;;;;5149053;27;20053;-58
2023/05/20 09:20:46;;;;;;;24.20;13.10;;;;;;;;;;5149177;27;20022;-59
2023/05/20 09:23:13;;;;;;;13.60;8.83;;;;;;;;;;5148781;27;20022;-58
2023/05/20 09:25:40;;;;;;;19.07;11.03;;;;;;;;;;5153306;27;20073;-58
2023/05/20 09:28:08;;;;;;;12.23;9.93;;;;;;;;;;5154044;27;20025;-58
2023/05/20 09:30:34;;;;;;;15.40;10.47;;;;;;;;;;5153685;27;20489;-58
2023/05/20 09:33:03;;;;;;;13.93;10.70;;;;;;;;;;5154048;27;20495;-58
2023/05/20 09:35:30;;;;;;;12.03;8.73;;;;;;;;;;5154061;27;20038;-58
2023/05/20 09:37:58;;;;;;;25.63;9.20;;;;;;;;;;5149080;27;20031;-58
2023/05/20 09:40:26;;;;;;;12.90;8.77;;;;;;;;;;5148816;27;20022;-58
2023/05/20 09:42:54;;;;;;;13.37;9.90;;;;;;;;;;5148610;27;20101;-59
2023/05/20 09:45:21;;;;;;;13.77;9.93;;;;;;;;;;5148535;27;20018;-58
2023/05/20 09:47:51;;;;;;;14.23;11.30;;;;;;;;;;5152740;27;20023;-58
2023/05/20 09:50:22;;;;;;;21.50;11.20;;;;;;;;;;5153939;27;20469;-58
2023/05/20 09:52:49;;;;;;;15.63;8.53;;;;;;;;;;5153681;27;20035;-58
2023/05/20 09:55:17;;;;;;;16.50;9.50;;;;;;;;;;5153599;27;20035;-58
2023/05/20 09:57:45;;;;;;;13.90;10.30;;;;;;;;;;5154051;27;20029;-58
2023/05/20 10:00:13;;;;;;;25.13;10.53;;;;;;;;;;5148562;27;20027;-59
2023/05/20 10:02:47;;;;;;;12.73;8.67;;;;;;;;;;5148712;27;20083;-58
2023/05/20 10:05:18;;;;;;;12.50;9.07;;;;;;;;;;5148799;27;20026;-58
2023/05/20 10:07:52;;;;;;;17.10;10.23;;;;;;;;;;5151300;27;20381;-58
2023/05/20 10:10:18;;;;;;;18.40;10.48;;;;;;;;;;5157110;27;20019;-58
2023/05/20 10:13:03;;;;;;;12.23;9.53;;;;;;;;;;5157670;27;20038;-58
2023/05/20 10:15:49;;;;;;;16.42;10.43;;;;;;;;;;5157503;27;20079;-58
2023/05/20 10:18:31;;;;;;;10.73;8.32;;;;;;;;;;5157374;27;20377;-58
2023/05/20 10:20:57;;;;;;;15.23;10.17;;;;;;;;;;5156048;27;20030;-58
2023/05/20 10:23:27;;;;;;;16.53;11.70;;;;;;;;;;5152494;27;20431;-58
2023/05/20 10:25:55;;;;;;;21.03;13.27;;;;;;;;;;5152316;27;20031;-58
2023/05/20 10:28:41;;;;;;;16.73;12.63;;;;;;;;;;5152317;27;20624;-58
2023/05/20 10:31:24;;;;;;;12.37;10.77;;;;;;;;;;5153185;27;20021;-58
2023/05/20 10:33:52;;;;;;;16.67;10.80;;;;;;;;;;5157294;27;20361;-58
2023/05/20 10:36:27;;;;;;;14.30;10.87;;;;;;;;;;5157382;27;20082;-58
2023/05/20 10:38:54;;;;;;;13.48;10.93;;;;;;;;;;5157107;27;20358;-58
2023/05/20 10:41:22;;;;;;;16.90;13.17;;;;;;;;;;5156659;27;20023;-58
2023/05/20 10:43:59;;;;;;;17.87;12.33;;;;;;;;;;5154751;27;20049;-58
2023/05/20 10:46:26;;;;;;;24.13;11.27;;;;;;;;;;5151823;27;20039;-58
2023/05/20 10:48:53;;;;;;;11.90;9.23;;;;;;;;;;5151847;27;20350;-58
2023/05/20 10:51:20;;;;;;;29.53;11.87;;;;;;;;;;5151946;27;20038;-58
2023/05/20 10:53:47;;;;;;;16.13;12.37;;;;;;;;;;5154100;27;20115;-58
2023/05/20 10:56:26;;;;;;;12.27;10.13;;;;;;;;;;5156557;27;20038;-58
2023/05/20 10:58:53;;;;;;;16.17;11.60;;;;;;;;;;5157033;27;20026;-59
2023/05/20 11:01:24;;;;;;;21.47;11.63;;;;;;;;;;5156876;27;20014;-58
2023/05/20 11:03:51;;;;;;;18.90;14.17;;;;;;;;;;5156669;27;20396;-59
2023/05/20 11:06:18;;;;;;;17.43;11.47;;;;;;;;;;5153670;27;20536;-58
2023/05/20 11:08:46;;;;;;;15.40;10.70;;;;;;;;;;5150850;27;20473;-59
2023/05/20 11:11:14;;;;;;;13.40;9.50;;;;;;;;;;5151509;27;20026;-58
2023/05/20 11:13:40;;;;;;;18.97;12.10;;;;;;;;;;5151388;27;20499;-58
2023/05/20 11:16:07;;;;;;;11.73;9.57;;;;;;;;;;5153700;27;20105;-58
2023/05/20 11:18:34;;;;;;;19.60;12.43;;;;;;;;;;5156070;27;20027;-58
2023/05/20 11:21:02;;;;;;;22.80;13.03;;;;;;;;;;5156376;27;20048;-58
2023/05/20 11:23:29;;;;;;;15.53;11.13;;;;;;;;;;5156530;27;20051;-58
2023/05/20 11:25:56;;;;;;;19.73;13.80;;;;;;;;;;5155635;27;20075;-58
2023/05/20 11:28:23;;;;;;;21.77;14.97;;;;;;;;;;5153752;27;20433;-58
2023/05/20 11:30:51;;;;;;;16.00;12.20;;;;;;;;;;5151089;27;20045;-58
2023/05/20 11:33:18;;;;;;;17.23;11.37;;;;;;;;;;5150973;27;20214;-58
2023/05/20 11:35:48;;;;;;;25.67;11.03;;;;;;;;;;5151033;27;20035;-58
2023/05/20 11:38:15;;;;;;;21.07;12.77;;;;;;;;;;5152857;27;20087;-58
2023/05/20 11:40:51;;;;;;;17.27;11.43;;;;;;;;;;5155901;27;20027;-59
2023/05/20 11:43:19;;;;;;;18.30;12.00;;;;;;;;;;5155792;27;20515;-58
2023/05/20 11:45:46;;;;;;;18.33;11.10;;;;;;;;;;5155720;27;20536;-58
2023/05/20 11:48:17;;;;;;;18.93;12.77;;;;;;;;;;5137193;27;20049;-58
2023/05/20 11:50:45;;;;;;;17.00;11.57;;;;;;;;;;5152991;27;20426;-58
2023/05/20 11:53:15;;;;;;;12.63;10.13;;;;;;;;;;5150546;27;20027;-58
2023/05/20 11:56:00;;;;;;;21.43;11.07;;;;;;;;;;5150297;27;20103;-58
2023/05/20 11:58:27;;;;;;;15.07;10.97;;;;;;;;;;5150439;27;20034;-58
2023/05/20 12:00:54;;;;;;;24.60;12.03;;;;;;;;;;5153035;27;20019;-58
2023/05/20 12:03:21;;;;;;;18.50;10.50;;;;;;;;;;5155420;27;20029;-59
2023/05/20 12:05:48;;;;;;;17.73;10.53;;;;;;;;;;5155237;27;20087;-58
2023/05/20 12:08:15;;;;;;;13.37;10.57;;;;;;;;;;5155247;27;20015;-58
2023/05/20 12:10:43;;;;;;;22.93;11.63;;;;;;;;;;5155262;27;20035;-58
2023/05/20 12:13:12;;;;;;;16.50;11.00;;;;;;;;;;5152013;27;20030;-58
2023/05/20 12:15:39;;;;;;;16.03;10.00;;;;;;;;;;5149772;27;20122;-58
2023/05/20 12:18:07;;;;;;;22.67;14.37;;;;;;;;;;5149830;27;20030;-59
2023/05/20 12:20:33;;;;;;;21.60;13.33;;;;;;;;;;5150064;27;20043;-59
2023/05/20 12:23:01;;;;;;;14.83;11.97;;;;;;;;;;5152067;27;20018;-59
2023/05/20 12:25:28;;;;;;;13.03;10.40;;;;;;;;;;5155057;27;20071;-58
2023/05/20 12:27:55;;;;;;;17.40;11.00;;;;;;;;;;5155058;27;20023;-58
2023/05/20 12:30:22;;;;;;;14.70;11.80;;;;;;;;;;5154283;27;20103;-59
2023/05/20 12:32:50;;;;;;;14.60;10.10;;;;;;;;;;5154929;27;20029;-59
2023/05/20 12:35:17;;;;;;;9.37;7.37;;;;;;;;;;5151839;27;20035;-59
2023/05/20 12:37:44;;;;;;;8.40;6.63;;;;;;;;;;5149696;27;20032;-58
2023/05/20 12:40:12;;;;;;;15.10;8.10;;;;;;;;;;5149393;27;20023;-58
2023/05/20 12:42:39;;;;;;;11.23;8.13;;;;;;;;;;5149515;27;20018;-58
2023/05/20 12:45:06;;;;;;;17.30;6.27;;;;;;;;;;5151469;27;20346;-58
2023/05/20 12:47:34;;;;;;;8.10;6.80;;;;;;;;;;5154654;27;20034;-58
2023/05/20 12:50:01;;;;;;;9.43;7.20;;;;;;;;;;5154625;27;20503;-58
2023/05/20 12:52:28;;;;;;;10.03;7.40;;;;;;;;;;5154415;27;20031;-58
2023/05/20 12:54:55;;;;;;;11.80;8.17;;;;;;;;;;5154057;27;20098;-58
2023/05/20 12:57:22;;;;;;;11.93;6.97;;;;;;;;;;5151938;27;20034;-58
2023/05/20 12:59:49;;;;;;;13.40;9.07;;;;;;;;;;5149358;27;20422;-58
2023/05/20 13:02:16;;;;;;;10.17;7.43;;;;;;;;;;5149246;27;20524;-58
2023/05/20 13:04:43;;;;;;;11.37;8.03;;;;;;;;;;5149154;27;20038;-59
2023/05/20 13:07:10;;;;;;;17.07;9.13;;;;;;;;;;5150886;27;20015;-58
2023/05/20 13:09:37;;;;;;;9.10;6.53;;;;;;;;;;5154023;27;20094;-58
2023/05/20 13:12:04;;;;;;;13.67;9.40;;;;;;;;;;5153993;27;20398;-58
2023/05/20 13:14:30;;;;;;;10.57;8.63;;;;;;;;;;5154013;27;20027;-58
2023/05/20 13:16:57;;;;;;;14.27;11.73;;;;;;;;;;5154062;27;20023;-59
2023/05/20 13:19:24;;;;;;;20.47;12.47;;;;;;;;;;5152168;27;20029;-59
2023/05/20 13:21:53;;;;;;;22.67;13.93;;;;;;;;;;5148902;27;20038;-59
2023/05/20 13:24:20;;;;;;;20.10;13.83;;;;;;;;;;5148973;27;20075;-58
2023/05/20 13:26:47;;;;;;;18.17;12.37;;;;;;;;;;5148394;27;20102;-58
2023/05/20 13:29:15;;;;;;;24.30;13.90;;;;;;;;;;5149958;27;20023;-59
2023/05/20 13:31:41;;;;;;;18.03;12.40;;;;;;;;;;5154174;27;20030;-58
2023/05/20 13:34:08;;;;;;;22.07;12.30;;;;;;;;;;5153962;27;20062;-59
2023/05/20 13:36:35;;;;;;;21.07;13.90;;;;;;;;;;5154019;27;20019;-58
2023/05/20 13:39:02;;;;;;;17.90;11.97;;;;;;;;;;5153844;27;20513;-58
2023/05/20 13:41:29;;;;;;;22.43;13.50;;;;;;;;;;5154830;27;20094;-58
2023/05/20 13:43:56;;;;;;;18.80;12.87;;;;;;;;;;5152251;27;20034;-58
2023/05/20 13:46:23;;;;;;;16.23;12.77;;;;;;;;;;5152945;27;20393;-58
2023/05/20 13:48:50;;;;;;;18.77;13.00;;;;;;;;;;5153131;27;20026;-58
2023/05/20 13:51:17;;;;;;;17.97;13.03;;;;;;;;;;5153638;27;20038;-59
2023/05/20 13:53:43;;;;;;;15.37;12.73;;;;;;;;;;5158124;27;20039;-58
2023/05/20 13:56:10;;;;;;;18.60;13.93;;;;;;;;;;5157762;27;20026;-59
2023/05/20 13:58:37;;;;;;;19.37;13.87;;;;;;;;;;5157910;27;20028;-59
2023/05/20 14:01:05;;;;;;;20.60;14.20;;;;;;;;;;5157207;27;20026;-59
2023/05/20 14:03:32;;;;;;;17.23;13.33;;;;;;;;;;5156900;27;20167;-59
2023/05/20 14:06:00;;;;;;;22.67;15.27;;;;;;;;;;5152731;27;20381;-59
2023/05/20 14:08:27;;;;;;;24.00;14.00;;;;;;;;;;5152564;27;20409;-59
2023/05/20 14:10:54;;;;;;;20.97;13.93;;;;;;;;;;5152621;27;20373;-59
2023/05/20 14:13:24;;;;;;;17.30;13.47;;;;;;;;;;5152667;27;20018;-59
2023/05/20 14:15:53;;;;;;;37.57;15.67;;;;;;;;;;5156891;27;20023;-59
2023/05/20 14:18:20;;;;;;;15.17;11.40;;;;;;;;;;5157765;27;20469;-59
2023/05/20 14:20:47;;;;;;;22.67;12.53;;;;;;;;;;5157485;27;20102;-59
2023/05/20 14:23:14;;;;;;;29.47;14.13;;;;;;;;;;5157552;27;20019;-59
2023/05/20 14:25:41;;;;;;;18.70;14.17;;;;;;;;;;5156653;27;20037;-59